sensor_id;sensor_type;location;lat;lon;timestamp;pressure;altitude;pressure_sealevel;temperature;humidity
14120;BME280;7138;49.246;9.100;2022-10-16T00:00:01;98549.41;;;18.52;100.00
14120;BME280;7138;49.246;9.100;2022-10-16T00:02:27;98540.69;;;18.52;100.00
14120;BME280;7138;49.246;9.100;2022-10-16T00:04:52;98545.06;;;18.51;100.00
14120;BME280;7138;49.246;9.100;2022-10-16T00:07:20;98527.78;;;18.46;100.00
14120;BME280;7138;49.246;9.100;2022-10-16T00:09:47;98526.03;;;18.46;100.00
14120;BME280;7138;49.246;9.100;2022-10-16T00:12:13;98526.19;;;18.42;100.00
14120;BME280;7138;49.246;9.100;2022-10-16T00:14:39;98537.66;;;18.38;100.00
14120;BME280;7138;49.246;9.100;2022-10-16T00:17:08;98543.88;;;18.35;100.00
14120;BME280;7138;49.246;9.100;2022-10-16T00:19:34;98556.22;;;18.32;100.00
14120;BME280;7138;49.246;9.100;2022-10-16T00:22:00;98551.00;;;18.30;100.00
14120;BME280;7138;49.246;9.100;2022-10-16T00:24:26;98553.63;;;18.30;100.00
14120;BME280;7138;49.246;9.100;2022-10-16T00:26:53;98561.44;;;18.32;100.00
14120;BME280;7138;49.246;9.100;2022-10-16T00:29:19;98555.31;;;18.33;100.00
14120;BME280;7138;49.246;9.100;2022-10-16T00:31:44;98562.22;;;18.34;100.00
14120;BME280;7138;49.246;9.100;2022-10-16T00:34:10;98571.06;;;18.31;100.00
14120;BME280;7138;49.246;9.100;2022-10-16T00:36:36;98575.53;;;18.28;100.00
14120;BME280;7138;49.246;9.100;2022-10-16T00:39:03;98572.88;;;18.29;100.00
14120;BME280;7138;49.246;9.100;2022-10-16T00:41:30;98567.66;;;18.29;100.00
14120;BME280;7138;49.246;9.100;2022-10-16T00:44:00;98571.13;;;18.30;100.00
14120;BME280;7138;49.246;9.100;2022-10-16T00:46:31;98565.81;;;18.31;100.00
14120;BME280;7138;49.246;9.100;2022-10-16T00:49:04;98569.28;;;18.32;100.00
14120;BME280;7138;49.246;9.100;2022-10-16T00:51:36;98560.44;;;18.36;100.00
14120;BME280;7138;49.246;9.100;2022-10-16T00:54:08;98549.91;;;18.37;100.00
14120;BME280;7138;49.246;9.100;2022-10-16T00:56:35;98543.78;;;18.38;100.00
14120;BME280;7138;49.246;9.100;2022-10-16T00:59:07;98551.53;;;18.41;100.00
14120;BME280;7138;49.246;9.100;2022-10-16T01:01:37;98552.53;;;18.37;100.00
14120;BME280;7138;49.246;9.100;2022-10-16T01:04:03;98553.31;;;18.39;100.00
14120;BME280;7138;49.246;9.100;2022-10-16T01:06:36;98577.69;;;18.41;100.00
14120;BME280;7138;49.246;9.100;2022-10-16T01:09:21;98568.91;;;18.42;100.00
14120;BME280;7138;49.246;9.100;2022-10-16T01:12:01;98571.53;;;18.42;100.00
14120;BME280;7138;49.246;9.100;2022-10-16T01:14:45;98565.56;;;18.39;100.00
14120;BME280;7138;49.246;9.100;2022-10-16T01:17:18;98556.69;;;18.43;100.00
14120;BME280;7138;49.246;9.100;2022-10-16T01:20:05;98554.94;;;18.43;100.00
14120;BME280;7138;49.246;9.100;2022-10-16T01:22:43;98559.31;;;18.43;100.00
14120;BME280;7138;49.246;9.100;2022-10-16T01:25:25;98552.38;;;18.42;100.00
14120;BME280;7138;49.246;9.100;2022-10-16T01:27:59;98549.00;;;18.38;100.00
14120;BME280;7138;49.246;9.100;2022-10-16T01:30:32;98560.34;;;18.39;100.00
14120;BME280;7138;49.246;9.100;2022-10-16T01:33:05;98562.09;;;18.38;100.00
14120;BME280;7138;49.246;9.100;2022-10-16T01:35:39;98562.31;;;18.32;100.00
14120;BME280;7138;49.246;9.100;2022-10-16T01:38:13;98572.47;;;18.41;100.00
14120;BME280;7138;49.246;9.100;2022-10-16T01:40:47;98572.47;;;18.41;100.00
14120;BME280;7138;49.246;9.100;2022-10-16T01:43:22;98570.75;;;18.40;100.00
14120;BME280;7138;49.246;9.100;2022-10-16T01:45:52;98579.38;;;18.42;100.00
14120;BME280;7138;49.246;9.100;2022-10-16T01:48:21;98584.53;;;18.45;100.00
14120;BME280;7138;49.246;9.100;2022-10-16T01:50:52;98583.91;;;18.39;100.00
14120;BME280;7138;49.246;9.100;2022-10-16T01:53:21;98581.22;;;18.40;100.00
14120;BME280;7138;49.246;9.100;2022-10-16T01:55:49;98588.06;;;18.44;100.00
14120;BME280;7138;49.246;9.100;2022-10-16T01:58:18;98584.41;;;18.48;100.00
14120;BME280;7138;49.246;9.100;2022-10-16T02:00:46;98586.06;;;18.52;100.00
14120;BME280;7138;49.246;9.100;2022-10-16T02:03:17;98572.06;;;18.53;100.00
14120;BME280;7138;49.246;9.100;2022-10-16T02:05:49;98575.56;;;18.54;100.00
14120;BME280;7138;49.246;9.100;2022-10-16T02:08:17;98573.72;;;18.56;100.00
14120;BME280;7138;49.246;9.100;2022-10-16T02:10:43;98568.41;;;18.58;100.00
14120;BME280;7138;49.246;9.100;2022-10-16T02:13:13;98558.00;;;18.56;100.00
14120;BME280;7138;49.246;9.100;2022-10-16T02:15:43;98562.25;;;18.60;100.00
14120;BME280;7138;49.246;9.100;2022-10-16T02:18:10;98552.81;;;18.54;100.00
14120;BME280;7138;49.246;9.100;2022-10-16T02:20:46;98568.31;;;18.61;100.00
14120;BME280;7138;49.246;9.100;2022-10-16T02:23:24;98575.28;;;18.62;100.00
14120;BME280;7138;49.246;9.100;2022-10-16T02:25:56;98567.47;;;18.60;100.00
14120;BME280;7138;49.246;9.100;2022-10-16T02:28:28;98574.41;;;18.61;100.00
14120;BME280;7138;49.246;9.100;2022-10-16T02:31:01;98576.16;;;18.61;100.00
14120;BME280;7138;49.246;9.100;2022-10-16T02:33:30;98571.78;;;18.61;100.00
14120;BME280;7138;49.246;9.100;2022-10-16T02:35:57;98579.72;;;18.60;100.00
14120;BME280;7138;49.246;9.100;2022-10-16T02:38:25;98579.66;;;18.61;100.00
14120;BME280;7138;49.246;9.100;2022-10-16T02:40:52;98578.78;;;18.61;100.00
14120;BME280;7138;49.246;9.100;2022-10-16T02:43:18;98573.56;;;18.61;100.00
14120;BME280;7138;49.246;9.100;2022-10-16T02:45:44;98581.41;;;18.61;100.00
14120;BME280;7138;49.246;9.100;2022-10-16T02:48:12;98579.66;;;18.61;100.00
14120;BME280;7138;49.246;9.100;2022-10-16T02:50:37;98580.50;;;18.62;100.00
14120;BME280;7138;49.246;9.100;2022-10-16T02:53:03;98576.16;;;18.61;100.00
14120;BME280;7138;49.246;9.100;2022-10-16T02:55:29;98578.78;;;18.61;100.00
14120;BME280;7138;49.246;9.100;2022-10-16T02:57:55;98581.50;;;18.58;100.00
14120;BME280;7138;49.246;9.100;2022-10-16T03:00:21;98577.09;;;18.60;100.00
14120;BME280;7138;49.246;9.100;2022-10-16T03:02:47;98583.31;;;18.57;100.00
14120;BME280;7138;49.246;9.100;2022-10-16T03:05:15;98581.50;;;18.58;100.00
14120;BME280;7138;49.246;9.100;2022-10-16T03:07:41;98577.09;;;18.60;100.00
14120;BME280;7138;49.246;9.100;2022-10-16T03:10:08;98578.78;;;18.61;100.00
14120;BME280;7138;49.246;9.100;2022-10-16T03:12:34;98567.59;;;18.57;100.00
14120;BME280;7138;49.246;9.100;2022-10-16T03:15:00;98567.72;;;18.52;100.00
14120;BME280;7138;49.246;9.100;2022-10-16T03:17:26;98578.78;;;18.61;100.00
14120;BME280;7138;49.246;9.100;2022-10-16T03:19:52;98578.75;;;18.62;100.00
14120;BME280;7138;49.246;9.100;2022-10-16T03:22:19;98594.47;;;18.62;100.00
14120;BME280;7138;49.246;9.100;2022-10-16T03:24:45;98594.50;;;18.61;100.00
14120;BME280;7138;49.246;9.100;2022-10-16T03:27:11;98590.22;;;18.58;100.00
14120;BME280;7138;49.246;9.100;2022-10-16T03:29:37;98595.44;;;18.60;100.00
14120;BME280;7138;49.246;9.100;2022-10-16T03:32:03;98602.44;;;18.59;100.00
14120;BME280;7138;49.246;9.100;2022-10-16T03:34:29;98589.44;;;18.56;100.00
14120;BME280;7138;49.246;9.100;2022-10-16T03:36:55;98604.25;;;18.57;100.00
14120;BME280;7138;49.246;9.100;2022-10-16T03:39:22;98595.53;;;18.57;100.00
14120;BME280;7138;49.246;9.100;2022-10-16T03:41:48;98598.94;;;18.59;100.00
14120;BME280;7138;49.246;9.100;2022-10-16T03:44:14;98591.06;;;18.60;100.00
14120;BME280;7138;49.246;9.100;2022-10-16T03:46:40;98606.69;;;18.62;100.00
14120;BME280;7138;49.246;9.100;2022-10-16T03:49:06;98607.56;;;18.62;100.00
14120;BME280;7138;49.246;9.100;2022-10-16T03:51:32;98602.31;;;18.62;100.00
14120;BME280;7138;49.246;9.100;2022-10-16T03:53:58;98600.59;;;18.61;100.00
14120;BME280;7138;49.246;9.100;2022-10-16T03:56:25;98599.75;;;18.61;100.00
14120;BME280;7138;49.246;9.100;2022-10-16T03:58:51;98595.31;;;18.63;100.00
14120;BME280;7138;49.246;9.100;2022-10-16T04:01:17;98597.94;;;18.63;100.00
14120;BME280;7138;49.246;9.100;2022-10-16T04:03:43;98601.34;;;18.65;100.00
14120;BME280;7138;49.246;9.100;2022-10-16T04:06:09;98596.09;;;18.66;100.00
14120;BME280;7138;49.246;9.100;2022-10-16T04:08:35;98596.09;;;18.66;100.00
14120;BME280;7138;49.246;9.100;2022-10-16T04:11:03;98594.28;;;18.67;100.00
14120;BME280;7138;49.246;9.100;2022-10-16T04:13:30;98599.53;;;18.67;100.00
14120;BME280;7138;49.246;9.100;2022-10-16T04:15:56;98605.69;;;18.66;100.00
14120;BME280;7138;49.246;9.100;2022-10-16T04:18:22;98609.13;;;18.68;100.00
14120;BME280;7138;49.246;9.100;2022-10-16T04:20:48;98605.63;;;18.67;100.00
14120;BME280;7138;49.246;9.100;2022-10-16T04:23:14;98614.31;;;18.69;100.00
14120;BME280;7138;49.246;9.100;2022-10-16T04:25:40;98608.22;;;18.69;100.00
14120;BME280;7138;49.246;9.100;2022-10-16T04:28:06;98617.75;;;18.70;100.00
14120;BME280;7138;49.246;9.100;2022-10-16T04:30:33;98625.59;;;18.71;100.00
14120;BME280;7138;49.246;9.100;2022-10-16T04:32:59;98629.97;;;18.71;100.00
14120;BME280;7138;49.246;9.100;2022-10-16T04:35:25;98622.97;;;18.71;100.00
14120;BME280;7138;49.246;9.100;2022-10-16T04:37:51;98622.09;;;18.71;100.00
14120;BME280;7138;49.246;9.100;2022-10-16T04:40:17;98616.00;;;18.70;100.00
14120;BME280;7138;49.246;9.100;2022-10-16T04:42:43;98623.81;;;18.72;100.00
14120;BME280;7138;49.246;9.100;2022-10-16T04:45:09;98629.16;;;18.69;100.00
14120;BME280;7138;49.246;9.100;2022-10-16T04:47:37;98629.16;;;18.69;100.00
14120;BME280;7138;49.246;9.100;2022-10-16T04:50:03;98619.88;;;18.60;100.00
14120;BME280;7138;49.246;9.100;2022-10-16T04:52:29;98643.06;;;18.71;100.00
14120;BME280;7138;49.246;9.100;2022-10-16T04:54:57;98639.53;;;18.72;100.00
14120;BME280;7138;49.246;9.100;2022-10-16T04:57:26;98642.19;;;18.70;100.00
14120;BME280;7138;49.246;9.100;2022-10-16T04:59:52;98648.31;;;18.71;100.00
14120;BME280;7138;49.246;9.100;2022-10-16T05:02:18;98645.69;;;18.71;100.00
14120;BME280;7138;49.246;9.100;2022-10-16T05:04:45;98644.06;;;18.67;100.00
14120;BME280;7138;49.246;9.100;2022-10-16T05:07:11;98643.38;;;18.62;100.00
14120;BME280;7138;49.246;9.100;2022-10-16T05:09:37;98639.78;;;18.64;100.00
14120;BME280;7138;49.246;9.100;2022-10-16T05:12:03;98643.34;;;18.63;100.00
14120;BME280;7138;49.246;9.100;2022-10-16T05:14:29;98645.03;;;18.64;100.00
14120;BME280;7138;49.246;9.100;2022-10-16T05:16:55;98647.66;;;18.64;100.00
14120;BME280;7138;49.246;9.100;2022-10-16T05:19:21;98646.78;;;18.64;100.00
14120;BME280;7138;49.246;9.100;2022-10-16T05:21:48;98639.78;;;18.64;100.00
14120;BME280;7138;49.246;9.100;2022-10-16T05:24:14;98637.16;;;18.64;100.00
14120;BME280;7138;49.246;9.100;2022-10-16T05:26:40;98645.00;;;18.66;100.00
14120;BME280;7138;49.246;9.100;2022-10-16T05:29:06;98644.06;;;18.67;100.00
14120;BME280;7138;49.246;9.100;2022-10-16T05:31:32;98639.78;;;18.64;100.00
14120;BME280;7138;49.246;9.100;2022-10-16T05:33:58;98632.78;;;18.65;100.00
14120;BME280;7138;49.246;9.100;2022-10-16T05:36:25;98627.56;;;18.65;100.00
14120;BME280;7138;49.246;9.100;2022-10-16T05:38:53;98630.25;;;18.63;100.00
14120;BME280;7138;49.246;9.100;2022-10-16T05:41:19;98645.88;;;18.65;100.00
14120;BME280;7138;49.246;9.100;2022-10-16T05:43:47;98633.22;;;18.52;100.00
14120;BME280;7138;49.246;9.100;2022-10-16T05:46:14;98658.44;;;18.55;100.00
14120;BME280;7138;49.246;9.100;2022-10-16T05:48:40;98657.69;;;18.51;100.00
14120;BME280;7138;49.246;9.100;2022-10-16T05:51:09;98657.75;;;18.48;100.00
14120;BME280;7138;49.246;9.100;2022-10-16T05:53:37;98664.75;;;18.49;100.00
14120;BME280;7138;49.246;9.100;2022-10-16T05:56:08;98662.16;;;18.48;100.00
14120;BME280;7138;49.246;9.100;2022-10-16T05:58:36;98661.50;;;18.41;100.00
14120;BME280;7138;49.246;9.100;2022-10-16T06:01:06;98671.13;;;18.39;100.00
14120;BME280;7138;49.246;9.100;2022-10-16T06:03:32;98665.91;;;18.39;100.00
14120;BME280;7138;49.246;9.100;2022-10-16T06:05:59;98679.91;;;18.38;100.00
14120;BME280;7138;49.246;9.100;2022-10-16T06:08:25;98679.06;;;18.38;100.00
14120;BME280;7138;49.246;9.100;2022-10-16T06:11:01;98671.31;;;18.35;100.00
14120;BME280;7138;49.246;9.100;2022-10-16T06:13:29;98669.69;;;18.31;100.00
14120;BME280;7138;49.246;9.100;2022-10-16T06:15:57;98674.81;;;18.34;100.00
14120;BME280;7138;49.246;9.100;2022-10-16T06:18:24;98672.28;;;18.31;100.00
14120;BME280;7138;49.246;9.100;2022-10-16T06:20:49;98683.59;;;18.33;100.00
14120;BME280;7138;49.246;9.100;2022-10-16T06:23:15;98690.53;;;18.34;100.00
14120;BME280;7138;49.246;9.100;2022-10-16T06:25:41;98680.06;;;18.34;100.00
14120;BME280;7138;49.246;9.100;2022-10-16T06:28:07;98662.56;;;18.36;100.00
14120;BME280;7138;49.246;9.100;2022-10-16T06:30:34;98669.44;;;18.38;100.00
14120;BME280;7138;49.246;9.100;2022-10-16T06:33:00;98679.00;;;18.39;100.00
14120;BME280;7138;49.246;9.100;2022-10-16T06:35:26;98680.72;;;18.40;100.00
14120;BME280;7138;49.246;9.100;2022-10-16T06:37:53;98680.63;;;18.43;100.00
14120;BME280;7138;49.246;9.100;2022-10-16T06:40:19;98686.66;;;18.45;100.00
14120;BME280;7138;49.246;9.100;2022-10-16T06:42:44;98696.22;;;18.46;100.00
14120;BME280;7138;49.246;9.100;2022-10-16T06:45:10;98704.03;;;18.49;100.00
14120;BME280;7138;49.246;9.100;2022-10-16T06:47:38;98708.25;;;18.53;100.00
14120;BME280;7138;49.246;9.100;2022-10-16T06:50:05;98706.34;;;18.59;100.00
14120;BME280;7138;49.246;9.100;2022-10-16T06:52:33;98696.63;;;18.62;100.00
14120;BME280;7138;49.246;9.100;2022-10-16T06:54:59;98697.63;;;18.58;100.00
14120;BME280;7138;49.246;9.100;2022-10-16T06:57:25;98714.88;;;18.64;100.00
14120;BME280;7138;49.246;9.100;2022-10-16T06:59:51;98719.19;;;18.66;100.00
14120;BME280;7138;49.246;9.100;2022-10-16T07:02:17;98728.81;;;18.66;100.00
14120;BME280;7138;49.246;9.100;2022-10-16T07:04:44;98738.44;;;18.65;100.00
14120;BME280;7138;49.246;9.100;2022-10-16T07:07:10;98737.53;;;18.66;100.00
14120;BME280;7138;49.246;9.100;2022-10-16T07:09:36;98738.38;;;18.67;100.00
14120;BME280;7138;49.246;9.100;2022-10-16T07:12:02;98734.06;;;18.66;100.00
14120;BME280;7138;49.246;9.100;2022-10-16T07:14:28;98731.44;;;18.66;100.00
14120;BME280;7138;49.246;9.100;2022-10-16T07:16:54;98737.56;;;18.65;100.00
14120;BME280;7138;49.246;9.100;2022-10-16T07:19:19;98739.28;;;18.66;100.00
14120;BME280;7138;49.246;9.100;2022-10-16T07:21:47;98728.09;;;18.61;100.00
14120;BME280;7138;49.246;9.100;2022-10-16T07:24:15;98741.19;;;18.61;100.00
14120;BME280;7138;49.246;9.100;2022-10-16T07:26:44;98754.28;;;18.61;100.00
14120;BME280;7138;49.246;9.100;2022-10-16T07:29:13;98736.81;;;18.61;100.00
14120;BME280;7138;49.246;9.100;2022-10-16T07:31:39;98749.72;;;18.67;100.00
14120;BME280;7138;49.246;9.100;2022-10-16T07:34:06;98754.91;;;18.69;100.00
14120;BME280;7138;49.246;9.100;2022-10-16T07:36:32;98761.75;;;18.73;100.00
14120;BME280;7138;49.246;9.100;2022-10-16T07:38:59;98751.16;;;18.76;100.00
14120;BME280;7138;49.246;9.100;2022-10-16T07:41:25;98743.16;;;18.80;100.00
14120;BME280;7138;49.246;9.100;2022-10-16T07:43:52;98749.09;;;18.85;100.00
14120;BME280;7138;49.246;9.100;2022-10-16T07:46:20;98748.22;;;18.86;100.00
14120;BME280;7138;49.246;9.100;2022-10-16T07:48:46;98760.41;;;18.87;100.00
14120;BME280;7138;49.246;9.100;2022-10-16T07:51:16;98764.63;;;18.91;100.00
14120;BME280;7138;49.246;9.100;2022-10-16T07:53:42;98768.06;;;18.93;100.00
14120;BME280;7138;49.246;9.100;2022-10-16T07:56:10;98772.19;;;19.00;100.00
14120;BME280;7138;49.246;9.100;2022-10-16T07:58:36;98769.53;;;19.02;100.00
14120;BME280;7138;49.246;9.100;2022-10-16T08:01:05;98769.31;;;19.08;100.00
14120;BME280;7138;49.246;9.100;2022-10-16T08:03:31;98778.56;;;19.18;100.00
14120;BME280;7138;49.246;9.100;2022-10-16T08:05:58;98787.81;;;19.30;100.00
14120;BME280;7138;49.246;9.100;2022-10-16T08:08:24;98783.13;;;19.38;100.00
14120;BME280;7138;49.246;9.100;2022-10-16T08:10:50;98801.28;;;19.45;100.00
14120;BME280;7138;49.246;9.100;2022-10-16T08:13:17;98802.75;;;19.52;100.00
14120;BME280;7138;49.246;9.100;2022-10-16T08:15:44;98792.06;;;19.58;100.00
14120;BME280;7138;49.246;9.100;2022-10-16T08:18:11;98793.78;;;19.59;100.00
14120;BME280;7138;49.246;9.100;2022-10-16T08:20:40;98803.03;;;19.70;100.00
14120;BME280;7138;49.246;9.100;2022-10-16T08:23:08;98802.22;;;19.68;100.00
14120;BME280;7138;49.246;9.100;2022-10-16T08:25:35;98814.22;;;19.75;100.00
14120;BME280;7138;49.246;9.100;2022-10-16T08:28:03;98807.03;;;19.80;100.00
14120;BME280;7138;49.246;9.100;2022-10-16T08:30:32;98788.88;;;19.74;100.00
14120;BME280;7138;49.246;9.100;2022-10-16T08:32:58;98802.31;;;19.89;100.00
14120;BME280;7138;49.246;9.100;2022-10-16T08:35:24;98788.44;;;19.86;100.00
14120;BME280;7138;49.246;9.100;2022-10-16T08:37:50;98809.00;;;19.98;100.00
14120;BME280;7138;49.246;9.100;2022-10-16T08:40:20;98804.56;;;20.00;100.00
14120;BME280;7138;49.246;9.100;2022-10-16T08:43:21;98814.75;;;20.07;100.00
14120;BME280;7138;49.246;9.100;2022-10-16T08:46:15;98803.91;;;20.16;100.00
14120;BME280;7138;49.246;9.100;2022-10-16T08:48:48;98816.69;;;20.27;100.00
14120;BME280;7138;49.246;9.100;2022-10-16T08:51:22;98806.75;;;20.35;100.00
14120;BME280;7138;49.246;9.100;2022-10-16T08:53:54;98799.28;;;20.46;100.00
14120;BME280;7138;49.246;9.100;2022-10-16T08:56:21;98808.69;;;20.52;100.00
14120;BME280;7138;49.246;9.100;2022-10-16T08:58:48;98812.53;;;20.66;100.00
14120;BME280;7138;49.246;9.100;2022-10-16T09:01:19;98816.56;;;20.75;99.07
14120;BME280;7138;49.246;9.100;2022-10-16T09:04:25;98823.88;;;20.89;99.02
14120;BME280;7138;49.246;9.100;2022-10-16T09:07:02;98821.97;;;20.92;97.69
14120;BME280;7138;49.246;9.100;2022-10-16T09:09:53;98823.13;;;21.08;97.58
14120;BME280;7138;49.246;9.100;2022-10-16T09:12:31;98806.53;;;21.06;98.27
14120;BME280;7138;49.246;9.100;2022-10-16T09:15:11;98829.38;;;21.26;98.21
14120;BME280;7138;49.246;9.100;2022-10-16T09:17:51;98833.22;;;21.39;96.86
14120;BME280;7138;49.246;9.100;2022-10-16T09:20:29;98838.88;;;21.50;96.73
14120;BME280;7138;49.246;9.100;2022-10-16T09:23:14;98855.91;;;21.62;95.89
14120;BME280;7138;49.246;9.100;2022-10-16T09:25:45;98857.44;;;21.67;95.52
14120;BME280;7138;49.246;9.100;2022-10-16T09:28:11;98850.25;;;21.71;95.05
14120;BME280;7138;49.246;9.100;2022-10-16T09:30:38;98852.63;;;21.77;94.84
14120;BME280;7138;49.246;9.100;2022-10-16T09:33:07;98869.25;;;21.79;95.41
14120;BME280;7138;49.246;9.100;2022-10-16T09:35:38;98879.41;;;21.87;95.15
14120;BME280;7138;49.246;9.100;2022-10-16T09:38:06;98886.31;;;21.91;95.85
14120;BME280;7138;49.246;9.100;2022-10-16T09:40:36;98891.09;;;22.01;94.59
14120;BME280;7138;49.246;9.100;2022-10-16T09:43:20;98887.22;;;22.10;94.46
14120;BME280;7138;49.246;9.100;2022-10-16T09:45:56;98891.38;;;22.15;93.95
14120;BME280;7138;49.246;9.100;2022-10-16T09:48:27;98874.16;;;22.27;94.75
14120;BME280;7138;49.246;9.100;2022-10-16T09:50:59;98885.03;;;22.38;94.25
14120;BME280;7138;49.246;9.100;2022-10-16T09:53:38;98884.63;;;22.47;91.92
14120;BME280;7138;49.246;9.100;2022-10-16T09:56:05;98885.00;;;22.58;92.94
14120;BME280;7138;49.246;9.100;2022-10-16T09:58:32;98886.44;;;22.65;92.38
14120;BME280;7138;49.246;9.100;2022-10-16T10:00:59;98896.66;;;22.73;91.77
14120;BME280;7138;49.246;9.100;2022-10-16T10:03:36;98897.38;;;22.76;91.25
14120;BME280;7138;49.246;9.100;2022-10-16T10:06:18;98903.28;;;22.81;91.51
14120;BME280;7138;49.246;9.100;2022-10-16T10:08:57;98898.56;;;22.88;91.99
14120;BME280;7138;49.246;9.100;2022-10-16T10:11:43;98906.81;;;22.99;91.37
14120;BME280;7138;49.246;9.100;2022-10-16T10:14:21;98901.97;;;23.09;93.53
14120;BME280;7138;49.246;9.100;2022-10-16T10:16:49;98911.50;;;23.30;93.35
14120;BME280;7138;49.246;9.100;2022-10-16T10:19:20;98905.34;;;23.48;91.27
14120;BME280;7138;49.246;9.100;2022-10-16T10:21:47;98911.72;;;23.61;91.17
14120;BME280;7138;49.246;9.100;2022-10-16T10:24:15;98910.00;;;23.77;91.97
14120;BME280;7138;49.246;9.100;2022-10-16T10:26:54;98909.88;;;23.98;89.81
14120;BME280;7138;49.246;9.100;2022-10-16T10:29:37;98910.47;;;24.20;90.27
14120;BME280;7138;49.246;9.100;2022-10-16T10:32:25;98904.06;;;24.41;88.26
14120;BME280;7138;49.246;9.100;2022-10-16T10:35:11;98904.19;;;24.55;87.68
14120;BME280;7138;49.246;9.100;2022-10-16T10:38:02;98912.53;;;24.63;85.11
14120;BME280;7138;49.246;9.100;2022-10-16T10:40:46;98904.94;;;24.57;80.86
14120;BME280;7138;49.246;9.100;2022-10-16T10:43:33;98909.22;;;24.60;81.06
14120;BME280;7138;49.246;9.100;2022-10-16T10:46:08;98912.19;;;24.54;82.10
14120;BME280;7138;49.246;9.100;2022-10-16T10:49:05;98901.72;;;24.52;82.64
14120;BME280;7138;49.246;9.100;2022-10-16T10:51:45;98901.88;;;24.49;81.22
14120;BME280;7138;49.246;9.100;2022-10-16T10:54:23;98907.31;;;24.46;80.45
14120;BME280;7138;49.246;9.100;2022-10-16T10:56:58;98899.78;;;24.38;80.25
14120;BME280;7138;49.246;9.100;2022-10-16T10:59:45;98907.19;;;24.32;80.82
14120;BME280;7138;49.246;9.100;2022-10-16T11:02:23;98908.91;;;24.33;83.57
14120;BME280;7138;49.246;9.100;2022-10-16T11:05:27;98891.84;;;24.38;82.17
14120;BME280;7138;49.246;9.100;2022-10-16T11:08:02;98882.91;;;24.41;86.23
14120;BME280;7138;49.246;9.100;2022-10-16T11:10:44;98887.06;;;24.62;86.07
14120;BME280;7138;49.246;9.100;2022-10-16T11:13:23;98881.75;;;24.78;84.47
14120;BME280;7138;49.246;9.100;2022-10-16T11:15:57;98873.41;;;24.70;80.05
14120;BME280;7138;49.246;9.100;2022-10-16T11:18:32;98893.75;;;24.85;82.42
14120;BME280;7138;49.246;9.100;2022-10-16T11:21:04;98892.13;;;24.98;82.65
14120;BME280;7138;49.246;9.100;2022-10-16T11:23:40;98884.78;;;25.03;82.25
14120;BME280;7138;49.246;9.100;2022-10-16T11:26:15;98887.50;;;25.17;82.59
14120;BME280;7138;49.246;9.100;2022-10-16T11:28:48;98885.19;;;25.27;81.06
14120;BME280;7138;49.246;9.100;2022-10-16T11:31:22;98893.28;;;25.39;82.87
14120;BME280;7138;49.246;9.100;2022-10-16T11:34:01;98894.22;;;25.54;82.50
14120;BME280;7138;49.246;9.100;2022-10-16T11:36:37;98896.97;;;25.52;80.57
14120;BME280;7138;49.246;9.100;2022-10-16T11:39:19;98896.31;;;25.63;82.50
14120;BME280;7138;49.246;9.100;2022-10-16T11:41:50;98891.13;;;25.62;79.47
14120;BME280;7138;49.246;9.100;2022-10-16T11:44:38;98889.53;;;25.59;78.06
14120;BME280;7138;49.246;9.100;2022-10-16T11:47:34;98881.94;;;25.53;74.98
14120;BME280;7138;49.246;9.100;2022-10-16T11:50:09;98876.19;;;25.45;75.77
14120;BME280;7138;49.246;9.100;2022-10-16T11:52:45;98888.91;;;25.38;73.18
14120;BME280;7138;49.246;9.100;2022-10-16T11:55:20;98897.31;;;25.31;72.67
14120;BME280;7138;49.246;9.100;2022-10-16T11:57:53;98897.31;;;25.31;74.83
14120;BME280;7138;49.246;9.100;2022-10-16T12:00:24;98893.38;;;25.38;74.91
14120;BME280;7138;49.246;9.100;2022-10-16T12:03:04;98894.31;;;25.37;72.96
14120;BME280;7138;49.246;9.100;2022-10-16T12:05:52;98894.09;;;25.26;72.79
14120;BME280;7138;49.246;9.100;2022-10-16T12:08:21;98892.72;;;25.19;75.23
14120;BME280;7138;49.246;9.100;2022-10-16T12:10:51;98894.09;;;25.10;75.46
14120;BME280;7138;49.246;9.100;2022-10-16T12:13:33;98877.88;;;25.00;74.83
14120;BME280;7138;49.246;9.100;2022-10-16T12:16:20;98893.75;;;25.00;74.18
14120;BME280;7138;49.246;9.100;2022-10-16T12:18:47;98899.97;;;24.84;73.59
14120;BME280;7138;49.246;9.100;2022-10-16T12:21:16;98896.22;;;24.88;76.09
14120;BME280;7138;49.246;9.100;2022-10-16T12:23:49;98893.16;;;24.95;76.55
14120;BME280;7138;49.246;9.100;2022-10-16T12:26:25;98896.56;;;24.97;76.38
14120;BME280;7138;49.246;9.100;2022-10-16T12:28:52;98907.84;;;24.85;73.79
14120;BME280;7138;49.246;9.100;2022-10-16T12:31:19;98899.50;;;24.76;74.75
14120;BME280;7138;49.246;9.100;2022-10-16T12:33:57;98899.31;;;24.63;74.89
14120;BME280;7138;49.246;9.100;2022-10-16T12:36:30;98889.56;;;24.48;74.13
14120;BME280;7138;49.246;9.100;2022-10-16T12:38:56;98898.09;;;24.53;76.85
14120;BME280;7138;49.246;9.100;2022-10-16T12:41:29;98888.47;;;24.52;76.43
14120;BME280;7138;49.246;9.100;2022-10-16T12:43:56;98893.78;;;24.52;75.19
14120;BME280;7138;49.246;9.100;2022-10-16T12:46:39;98889.06;;;24.57;76.13
14120;BME280;7138;49.246;9.100;2022-10-16T12:49:22;98888.06;;;24.60;75.94
14120;BME280;7138;49.246;9.100;2022-10-16T12:51:50;98882.25;;;24.69;75.99
14120;BME280;7138;49.246;9.100;2022-10-16T12:54:19;98887.69;;;24.83;77.72
14120;BME280;7138;49.246;9.100;2022-10-16T12:57:08;98887.78;;;24.97;76.38
14120;BME280;7138;49.246;9.100;2022-10-16T12:59:43;98894.78;;;25.14;74.93
14120;BME280;7138;49.246;9.100;2022-10-16T13:02:52;98893.06;;;25.13;73.25
14120;BME280;7138;49.246;9.100;2022-10-16T13:05:35;98890.25;;;25.16;73.96
14120;BME280;7138;49.246;9.100;2022-10-16T13:08:26;98893.47;;;25.21;73.94
14120;BME280;7138;49.246;9.100;2022-10-16T13:11:05;98884.78;;;25.19;73.76
14120;BME280;7138;49.246;9.100;2022-10-16T13:13:54;98887.84;;;25.11;73.73
14120;BME280;7138;49.246;9.100;2022-10-16T13:16:32;98898.34;;;24.97;73.25
14120;BME280;7138;49.246;9.100;2022-10-16T13:19:20;98902.44;;;24.87;73.18
14120;BME280;7138;49.246;9.100;2022-10-16T13:22:00;98895.53;;;24.84;74.75